Time;durP1;ratioP1;P1;durP2;ratioP2;P2;SDS_P1;SDS_P2;PMS_P1;PMS_P2;Temp;Humidity;BMP_temperature;BMP_pressure;BME280_temperature;BME280_humidity;BME280_pressure;Samples;Min_cycle;Max_cycle;Signal;HPM_P1;HPM_P2
2022/01/13 00:01:26;;;;;;;;;29.50;20.25;;;;;5.75;86.33;103341.91;5076904;28;45693;-80
2022/01/13 00:03:52;;;;;;;;;26.50;20.50;;;;;5.82;86.04;103363.53;5077702;28;45591;-80
2022/01/13 00:06:17;;;;;;;;;23.00;21.75;;;;;5.77;86.23;103354.91;5077655;28;47361;-81
2022/01/13 00:08:42;;;;;;;;;27.00;21.50;;;;;5.74;86.61;103352.31;5077746;28;47205;-80
2022/01/13 00:11:08;;;;;;;;;31.25;24.75;;;;;5.73;86.26;103354.03;5076867;28;45641;-79
2022/01/13 00:13:46;;;;;;;;;26.75;22.75;;;;;5.72;86.37;103360.09;5079648;28;45784;-80
2022/01/13 00:16:26;;;;;;;;;27.50;22.50;;;;;5.69;86.22;103347.13;5079543;28;45476;-79
2022/01/13 00:19:04;;;;;;;;;23.75;19.25;;;;;5.60;86.18;103339.41;5079358;28;46213;-80
2022/01/13 00:21:35;;;;;;;;;9.50;4.00;;;;;5.63;86.66;103347.16;5079502;28;45652;-80
2022/01/13 00:24:02;;;;;;;;;31.25;23.25;;;;;5.58;86.82;103345.47;5061518;28;45561;-79
2022/01/13 00:26:29;;;;;;;;;23.50;19.75;;;;;5.50;86.15;103345.53;5079247;28;47412;-79
2022/01/13 00:28:56;;;;;;;;;24.50;20.25;;;;;5.57;86.79;103355.00;5078950;28;46334;-79
2022/01/13 00:31:27;;;;;;;;;27.75;20.50;;;;;5.52;86.43;103345.50;5075445;28;45730;-79
2022/01/13 00:33:57;;;;;;;;;26.75;21.25;;;;;5.52;86.75;103342.91;5077045;28;45786;-78
2022/01/13 00:36:27;;;;;;;;;24.00;20.25;;;;;5.48;86.52;103339.47;5076570;28;46463;-81
2022/01/13 00:38:54;;;;;;;;;20.00;17.25;;;;;5.49;86.39;103349.00;5075121;28;46588;-79
2022/01/13 00:41:20;;;;;;;;;23.75;19.00;;;;;5.27;86.21;103316.22;5076717;28;45883;-82
2022/01/13 00:43:47;;;;;;;;;23.00;20.00;;;;;5.46;86.74;103359.41;5058363;28;45956;-82
2022/01/13 00:46:23;;;;;;;;;29.25;19.75;;;;;5.40;86.75;103349.91;5076403;28;46687;-80
2022/01/13 00:48:49;;;;;;;;;26.25;21.25;;;;;5.41;86.92;103343.84;5076401;28;47242;-78
2022/01/13 00:51:15;;;;;;;;;28.25;24.75;;;;;5.33;87.12;103331.78;5076032;28;45636;-80
2022/01/13 00:53:41;;;;;;;;;27.00;21.75;;;;;5.39;86.75;103343.00;5076539;28;45594;-79
2022/01/13 00:56:07;;;;;;;;;24.50;18.75;;;;;5.41;87.04;103337.78;5075737;28;46610;-81
2022/01/13 00:58:34;;;;;;;;;24.50;19.00;;;;;5.39;86.90;103342.13;5076354;28;46012;-80
2022/01/13 01:01:01;;;;;;;;;21.50;17.75;;;;;5.32;87.29;103327.44;5075766;28;45950;-80
2022/01/13 01:03:27;;;;;;;;;30.00;19.25;;;;;5.37;86.83;103336.06;5076328;28;45634;-80
2022/01/13 01:05:53;;;;;;;;;25.50;18.75;;;;;5.32;87.01;103337.84;5076131;28;46272;-80
2022/01/13 01:08:19;;;;;;;;;29.25;22.75;;;;;5.30;86.95;103332.63;5076265;28;46149;-80
2022/01/13 01:10:48;;;;;;;;;27.00;21.75;;;;;5.34;87.08;103336.97;5076248;28;45498;-81
2022/01/13 01:13:17;;;;;;;;;21.75;19.75;;;;;5.35;87.02;103341.28;5075898;28;45663;-81
2022/01/13 01:15:48;;;;;;;;;23.25;18.75;;;;;5.35;87.26;103340.41;5075675;28;46651;-79
2022/01/13 01:18:28;;;;;;;;;23.50;19.00;;;;;5.35;87.63;103345.59;5075779;28;46097;-81
2022/01/13 01:29:20;;;;;;;;;22.00;16.75;;;;;5.32;87.53;103335.22;5013030;28;46056;-79
2022/01/13 01:31:38;;;;;;;;;23.25;19.50;;;;;5.26;87.63;103336.13;5012775;28;45956;-79
2022/01/13 01:34:27;;;;;;;;;20.00;14.75;;;;;5.29;87.45;103341.28;4996151;28;45901;-81
2022/01/13 01:36:54;;;;;;;;;22.25;15.50;;;;;5.27;87.36;103343.06;5012658;28;46666;-79
2022/01/13 01:39:24;;;;;;;;;17.75;14.75;;;;;5.23;87.75;103336.16;5012446;28;46383;-80
2022/01/13 01:41:52;;;;;;;;;17.25;15.25;;;;;5.23;87.33;103337.88;4996048;28;45731;-79
2022/01/13 01:44:28;;;;;;;;;18.00;15.00;;;;;5.21;87.45;103344.81;4996343;28;45975;-79
2022/01/13 01:46:58;;;;;;;;;15.50;14.25;;;;;5.16;87.56;103337.06;5012437;28;47405;-78
2022/01/13 01:49:25;;;;;;;;;19.25;16.00;;;;;5.12;87.32;103335.34;5012822;28;46654;-80
2022/01/13 01:52:00;;;;;;;;;23.75;15.25;;;;;5.16;87.60;103343.97;5012728;28;45806;-78
2022/01/13 01:54:26;;;;;;;;;17.50;12.25;;;;;5.14;87.78;103349.16;5013264;28;45631;-80
2022/01/13 01:56:52;;;;;;;;;17.50;11.75;;;;;5.12;87.58;103340.53;5012613;28;46419;-80
2022/01/13 01:59:22;;;;;;;;;15.75;13.50;;;;;5.10;87.48;103336.22;5012972;28;46262;-81
2022/01/13 02:01:50;;;;;;;;;15.75;13.25;;;;;4.98;87.86;103327.59;5051557;28;45803;-81
2022/01/13 02:04:17;;;;;;;;;21.50;17.75;;;;;5.03;87.75;103344.03;5054836;28;45625;-81
2022/01/13 02:06:44;;;;;;;;;12.75;10.00;;;;;5.04;87.47;103352.69;5054946;28;45639;-80
2022/01/13 02:09:12;;;;;;;;;16.50;15.50;;;;;4.97;88.09;103337.97;5054990;28;46178;-78
2022/01/13 02:11:44;;;;;;;;;22.50;15.75;;;;;5.05;87.37;103352.69;5054763;28;45621;-78
2022/01/13 02:14:32;;;;;;;;;17.00;13.75;;;;;5.04;87.58;103363.94;5054911;28;45708;-80
2022/01/13 02:17:02;;;;;;;;;18.25;15.00;;;;;5.02;87.78;103355.28;5054346;28;46233;-78
2022/01/13 02:19:28;;;;;;;;;15.25;12.00;;;;;5.00;87.70;103359.63;5054908;28;46329;-78
2022/01/13 02:21:54;;;;;;;;;13.00;13.00;;;;;4.85;88.09;103338.06;5054657;28;45522;-79
2022/01/13 02:24:20;;;;;;;;;18.75;12.50;;;;;4.98;87.60;103353.56;5054978;28;45519;-77
2022/01/13 02:26:46;;;;;;;;;17.50;14.00;;;;;4.91;87.65;103351.03;5054682;28;46698;-78
2022/01/13 02:29:11;;;;;;;;;21.75;14.50;;;;;4.93;88.03;103354.47;5054230;28;46157;-80
2022/01/13 02:31:37;;;;;;;;;16.00;13.50;;;;;4.95;88.14;103358.78;5054325;28;45595;-76
2022/01/13 02:34:02;;;;;;;;;16.75;14.75;;;;;4.99;88.25;103363.09;5054435;28;45630;-78
2022/01/13 02:36:30;;;;;;;;;16.50;15.25;;;;;5.00;87.69;103364.84;5054985;28;46394;-77
2022/01/13 02:38:57;;;;;;;;;13.25;10.50;;;;;4.98;87.81;103356.16;5054790;28;46232;-78
2022/01/13 02:41:24;;;;;;;;;21.00;15.75;;;;;5.01;87.83;103352.72;5054643;28;45480;-78
2022/01/13 02:43:52;;;;;;;;;13.00;11.25;;;;;5.08;87.86;103355.25;5057269;28;45525;-79
2022/01/13 02:46:33;;;;;;;;;21.75;13.25;;;;;5.08;87.76;103354.38;5053138;28;45708;-78
2022/01/13 02:49:00;;;;;;;;;12.00;12.00;;;;;5.11;87.64;103353.53;5053979;28;46188;-78
2022/01/13 02:51:27;;;;;;;;;16.00;13.50;;;;;5.11;87.96;103348.34;5053660;28;45916;-79
2022/01/13 02:53:52;;;;;;;;;14.50;12.50;;;;;4.97;87.81;103330.19;5053294;28;45936;-79
2022/01/13 02:56:17;;;;;;;;;21.75;11.50;;;;;4.97;88.07;103325.88;5052694;28;46577;-76
2022/01/13 02:58:45;;;;;;;;;13.00;12.50;;;;;5.04;88.05;103342.28;5052544;28;46157;-79
2022/01/13 03:01:11;;;;;;;;;13.75;12.50;;;;;5.03;88.06;103336.22;5053598;28;45810;-79
2022/01/13 03:03:36;;;;;;;;;13.50;10.75;;;;;5.09;88.21;103345.72;5054023;28;45531;-78
2022/01/13 03:09:23;;;;;;;;;11.00;9.00;;;;;5.02;88.13;103347.50;5055857;28;45539;-80
2022/01/13 03:11:49;;;;;;;;;11.25;11.00;;;;;4.95;87.88;103335.41;5056113;28;45604;-80
2022/01/13 03:14:15;;;;;;;;;14.50;10.00;;;;;5.00;88.00;103349.25;5055365;28;45853;-80
2022/01/13 03:16:42;;;;;;;;;13.00;10.75;;;;;4.99;87.83;103349.25;5052695;28;48586;-80
2022/01/13 03:19:10;;;;;;;;;15.00;11.00;;;;;4.96;87.79;103344.94;5053706;28;46279;-78
2022/01/13 03:21:36;;;;;;;;;11.75;11.00;;;;;4.93;88.29;103344.94;5053735;28;45935;-79
2022/01/13 03:24:06;;;;;;;;;14.25;10.50;;;;;4.92;87.98;103342.34;5053634;28;45610;-79
2022/01/13 03:26:32;;;;;;;;;16.25;12.00;;;;;4.82;87.79;103331.13;5053135;28;47604;-79
2022/01/13 03:31:37;;;;;;;;;11.75;10.00;;;;;4.85;88.21;103338.91;5053321;28;45712;-80
2022/01/13 03:34:03;;;;;;;;;14.25;12.00;;;;;4.85;87.91;103340.66;5053532;28;45709;-79
2022/01/13 03:36:28;;;;;;;;;13.25;11.75;;;;;4.81;88.24;103337.19;5053591;28;45543;-79
2022/01/13 03:38:54;;;;;;;;;14.75;12.75;;;;;4.81;87.78;103344.97;5053544;28;46094;-78
2022/01/13 03:41:21;;;;;;;;;13.50;11.50;;;;;4.76;87.99;103338.94;5053439;28;45667;-79
2022/01/13 03:43:47;;;;;;;;;16.25;11.50;;;;;4.77;87.87;103343.25;5053518;28;45581;-78
2022/01/13 03:46:14;;;;;;;;;9.00;8.25;;;;;4.78;87.77;103333.72;5053558;28;45482;-78
2022/01/13 03:48:40;;;;;;;;;10.00;9.25;;;;;4.70;87.88;103322.53;5053383;28;47062;-78
2022/01/13 03:51:06;;;;;;;;;15.25;11.50;;;;;4.77;88.14;103334.59;5052880;28;45524;-77
2022/01/13 03:53:31;;;;;;;;;12.00;10.00;;;;;4.76;87.79;103340.66;5052975;28;45726;-79
2022/01/13 03:56:27;;;;;;;;;9.67;9.67;;;;;4.75;88.17;103342.38;5058339;28;45798;-78
2022/01/13 03:59:05;;;;;;;;;10.75;8.00;;;;;4.73;87.92;103340.69;5073515;28;46466;-79
2022/01/13 04:01:58;;;;;;;;;11.25;8.50;;;;;4.71;87.84;103338.06;5073376;28;45857;-79
2022/01/13 04:07:45;;;;;;;;;11.75;10.50;;;;;4.65;88.23;103330.31;5076954;28;46022;-77
2022/01/13 04:11:01;;;;;;;;;16.75;11.00;;;;;4.62;87.91;103327.72;5076932;28;45910;-79
2022/01/13 04:13:46;;;;;;;;;13.50;10.00;;;;;4.67;88.03;103336.38;5058329;28;45864;-77
2022/01/13 04:16:13;;;;;;;;;13.00;11.00;;;;;4.62;87.96;103328.59;5077096;28;45873;-78
2022/01/13 04:18:39;;;;;;;;;13.25;11.75;;;;;4.65;87.73;103338.09;5058207;28;47784;-77
2022/01/13 04:24:26;;;;;;;;;9.25;8.00;;;;;4.61;87.63;103344.16;5078640;28;45928;-80
2022/01/13 04:26:53;;;;;;;;;9.50;7.75;;;;;4.49;88.11;103333.81;5077492;28;45832;-78
2022/01/13 04:29:29;;;;;;;;;11.50;9.50;;;;;4.45;88.17;103325.16;5077063;28;47270;-78
2022/01/13 04:31:55;;;;;;;;;11.00;10.75;;;;;4.46;87.86;103332.09;5077712;28;47203;-79
2022/01/13 04:34:21;;;;;;;;;10.50;9.25;;;;;4.37;88.13;103310.50;5077961;28;45573;-79
2022/01/13 04:40:09;;;;;;;;;10.00;8.00;;;;;4.32;88.32;103325.19;5078137;28;46067;-79
2022/01/13 04:42:36;;;;;;;;;10.00;8.75;;;;;4.24;88.27;103312.22;5059759;28;48339;-78
2022/01/13 04:45:03;;;;;;;;;9.25;7.50;;;;;4.30;88.33;103325.19;5078684;28;45542;-78
2022/01/13 04:47:29;;;;;;;;;8.25;7.25;;;;;4.30;87.94;103329.53;5078310;28;45804;-79
2022/01/13 04:49:55;;;;;;;;;9.75;7.25;;;;;4.27;88.18;103324.31;5077361;28;46428;-78
2022/01/13 04:52:20;;;;;;;;;8.25;7.25;;;;;4.28;87.90;103329.50;5077197;28;46284;-76
2022/01/13 04:54:45;;;;;;;;;8.25;7.25;;;;;4.29;87.97;103327.78;5058818;28;45566;-79
2022/01/13 04:57:17;;;;;;;;;11.00;9.00;;;;;4.24;88.17;103322.59;5058626;28;45544;-78
2022/01/13 04:59:43;;;;;;;;;11.75;8.00;;;;;4.32;87.81;103336.41;5076195;28;47447;-79
2022/01/13 05:02:09;;;;;;;;;11.50;9.50;;;;;4.33;88.11;103334.69;5076099;28;46051;-78
2022/01/13 05:04:35;;;;;;;;;12.00;12.00;;;;;4.35;88.17;103335.56;5076912;28;45981;-79
2022/01/13 05:10:22;;;;;;;;;11.50;9.25;;;;;4.24;87.91;103325.19;5077347;28;45991;-79
2022/01/13 05:12:54;;;;;;;;;12.00;8.50;;;;;4.36;87.79;103337.31;5078270;28;46532;-79
2022/01/13 05:15:25;;;;;;;;;15.00;11.75;;;;;4.32;88.04;103335.59;5077013;28;45928;-78
2022/01/13 05:20:28;;;;;;;;;11.50;10.50;;;;;4.24;88.14;103327.78;5076741;28;45666;-78
2022/01/13 05:22:55;;;;;;;;;15.50;11.75;;;;;4.28;88.15;103341.63;5077590;28;45945;-76
2022/01/13 05:25:21;;;;;;;;;9.50;8.50;;;;;4.27;88.43;103339.88;5078451;28;45820;-78
2022/01/13 05:27:47;;;;;;;;;8.75;7.75;;;;;4.12;88.19;103314.81;5077776;28;45471;-78
2022/01/13 05:30:19;;;;;;;;;9.50;8.50;;;;;4.19;88.18;103326.94;5077703;28;46281;-79
2022/01/13 05:32:46;;;;;;;;;17.00;8.50;;;;;4.26;88.38;103348.56;5081171;28;46305;-79
2022/01/13 05:35:11;;;;;;;;;10.25;9.75;;;;;4.19;88.22;103333.00;5093892;28;45791;-79
2022/01/13 05:37:36;;;;;;;;;9.00;7.00;;;;;4.25;87.94;103337.31;5092214;28;45784;-78
2022/01/13 05:40:02;;;;;;;;;10.75;8.75;;;;;4.27;88.02;103326.91;5095828;28;46243;-78
2022/01/13 05:42:28;;;;;;;;;11.75;8.25;;;;;4.31;88.17;103328.66;5098111;28;46603;-79
2022/01/13 05:44:55;;;;;;;;;10.50;7.75;;;;;4.32;87.90;103322.63;5095472;28;45322;-78
2022/01/13 05:47:21;;;;;;;;;11.75;10.50;;;;;4.35;88.18;103331.25;5097547;28;45779;-78
2022/01/13 05:49:47;;;;;;;;;10.50;10.50;;;;;4.39;87.85;103329.50;5094255;28;46835;-79
2022/01/13 05:55:35;;;;;;;;;12.75;11.00;;;;;4.34;87.93;103323.44;5077255;28;45888;-79
2022/01/13 05:58:01;;;;;;;;;11.00;8.00;;;;;4.36;88.17;103338.16;5078344;28;45959;-78
2022/01/13 06:00:26;;;;;;;;;9.25;8.00;;;;;4.35;87.88;103327.78;5087679;28;45439;-79
2022/01/13 06:02:52;;;;;;;;;8.25;8.00;;;;;4.24;88.04;103304.44;5084639;28;45659;-77
2022/01/13 06:05:18;;;;;;;;;12.25;8.75;;;;;4.36;87.86;103317.41;5077386;28;45617;-78
2022/01/13 06:11:05;;;;;;;;;14.00;10.50;;;;;4.23;88.35;103294.94;5076681;28;46185;-80
2022/01/13 06:13:31;;;;;;;;;11.50;9.25;;;;;4.42;87.90;103334.69;5076575;28;46160;-81
2022/01/13 06:15:56;;;;;;;;;7.50;6.00;;;;;4.38;87.96;103328.63;5076826;28;45513;-79
2022/01/13 06:18:25;;;;;;;;;9.50;7.75;;;;;4.38;87.96;103333.81;5078804;28;45791;-79
2022/01/13 06:20:50;;;;;;;;;14.00;9.75;;;;;4.34;87.97;103316.53;5077222;28;45565;-77
2022/01/13 06:23:17;;;;;;;;;14.75;13.75;;;;;4.22;88.10;103286.28;5077828;28;45681;-80
2022/01/13 06:25:43;;;;;;;;;11.75;10.00;;;;;4.47;88.09;103328.63;5079636;28;45399;-80
2022/01/13 06:28:11;;;;;;;;;14.50;11.00;;;;;4.47;88.14;103335.56;5080927;28;45437;-80
2022/01/13 06:30:36;;;;;;;;;10.00;8.50;;;;;4.39;87.92;103325.16;5076233;28;46702;-79
2022/01/13 06:33:04;;;;;;;;;12.75;9.75;;;;;4.44;88.23;103341.59;5077068;28;46208;-78
2022/01/13 06:35:29;;;;;;;;;11.00;10.50;;;;;4.44;87.83;103339.00;5058630;28;46354;-79
2022/01/13 06:41:18;;;;;;;;;12.00;11.25;;;;;4.26;88.09;103313.09;5077226;28;45452;-78
2022/01/13 06:43:44;;;;;;;;;12.25;10.50;;;;;4.38;88.30;103335.56;5077661;28;46129;-80
2022/01/13 06:46:17;;;;;;;;;14.50;11.50;;;;;4.31;88.06;103320.88;5077519;28;45759;-79
2022/01/13 06:48:43;;;;;;;;;13.00;12.25;;;;;4.25;88.01;103316.56;5074244;28;45815;-80
2022/01/13 06:51:09;;;;;;;;;12.00;11.00;;;;;4.12;88.11;103291.47;5075703;28;45611;-80
2022/01/13 06:53:35;;;;;;;;;13.00;11.50;;;;;4.39;87.93;103334.69;5075993;28;45754;-80
2022/01/13 06:56:01;;;;;;;;;14.00;11.25;;;;;4.39;88.36;103337.28;5075011;28;45671;-80
2022/01/13 06:58:27;;;;;;;;;16.50;11.75;;;;;4.39;88.20;103335.56;5074841;28;45515;-80
2022/01/13 07:00:53;;;;;;;;;14.25;11.00;;;;;4.41;87.88;103343.34;5074299;28;47174;-82
2022/01/13 07:03:22;;;;;;;;;11.00;10.50;;;;;4.42;88.22;103340.75;5073787;28;46873;-79
2022/01/13 07:05:48;;;;;;;;;14.75;12.00;;;;;4.44;87.99;103340.72;5056455;28;45630;-79
2022/01/13 07:11:35;;;;;;;;;13.00;10.50;;;;;4.51;87.85;103335.53;5073402;28;45483;-79
2022/01/13 07:14:03;;;;;;;;;14.75;12.50;;;;;4.53;88.10;103340.75;5073816;28;46012;-79
2022/01/13 07:16:28;;;;;;;;;14.75;12.00;;;;;4.54;88.06;103335.53;5074047;28;45912;-80
2022/01/13 07:18:54;;;;;;;;;12.50;11.00;;;;;4.54;88.20;103345.03;5074613;28;45828;-79
2022/01/13 07:21:21;;;;;;;;;14.75;12.00;;;;;4.51;87.82;103338.13;5073935;28;46596;-79
2022/01/13 07:23:47;;;;;;;;;12.50;11.00;;;;;4.43;88.14;103321.69;5073838;28;47050;-79
2022/01/13 07:26:12;;;;;;;;;11.50;8.75;;;;;4.52;87.78;103334.69;5073774;28;45475;-80
2022/01/13 07:28:38;;;;;;;;;10.00;8.00;;;;;4.47;87.95;103326.03;5073726;28;45688;-78
2022/01/13 07:31:03;;;;;;;;;15.50;12.50;;;;;4.56;88.21;103335.53;5072665;28;45831;-78
2022/01/13 07:33:29;;;;;;;;;16.75;11.50;;;;;4.60;87.78;103343.28;5073590;28;45579;-81
2022/01/13 07:35:54;;;;;;;;;15.25;11.00;;;;;4.62;87.71;103354.56;5074302;28;45967;-79
2022/01/13 07:41:42;;;;;;;;;17.50;16.00;;;;;4.63;87.57;103351.09;5077570;28;45671;-80
2022/01/13 07:44:08;;;;;;;;;12.50;11.00;;;;;4.69;87.58;103346.75;5077569;28;46430;-80
2022/01/13 07:46:34;;;;;;;;;22.25;18.50;;;;;4.71;87.84;103347.59;5077773;28;45629;-80
2022/01/13 07:48:59;;;;;;;;;16.75;12.75;;;;;4.63;87.65;103327.72;5077523;28;45477;-81
2022/01/13 07:51:25;;;;;;;;;12.00;11.75;;;;;4.69;88.21;103339.84;5077158;28;46339;-80
2022/01/13 07:57:12;;;;;;;;;14.25;11.50;;;;;4.67;87.88;103338.09;5076245;28;45756;-80
2022/01/13 07:59:37;;;;;;;;;16.00;11.00;;;;;4.68;88.18;103339.84;5059503;28;45519;-79
2022/01/13 08:02:03;;;;;;;;;16.00;14.25;;;;;4.69;88.01;103349.34;5077209;28;45567;-80
2022/01/13 08:04:29;;;;;;;;;14.25;11.00;;;;;4.57;88.20;103319.97;5059906;28;46467;-79
2022/01/13 08:06:59;;;;;;;;;12.00;11.50;;;;;4.52;87.66;103315.63;5077737;28;45520;-81
2022/01/13 08:09:25;;;;;;;;;14.25;14.25;;;;;4.69;88.15;103344.16;5078570;28;45828;-77
2022/01/13 08:11:51;;;;;;;;;14.50;11.25;;;;;4.67;87.64;103335.50;5078161;28;45814;-80
2022/01/13 08:14:16;;;;;;;;;14.25;12.00;;;;;4.67;87.70;103338.09;5076902;28;45920;-78
2022/01/13 08:16:44;;;;;;;;;12.25;10.50;;;;;4.67;87.81;103336.38;5076793;28;45564;-78
2022/01/13 08:21:53;;;;;;;;;16.75;14.25;;;;;4.63;87.76;103329.47;5076576;28;46238;-80
2022/01/13 08:24:19;;;;;;;;;15.00;11.50;;;;;4.64;87.78;103332.03;5077079;28;46453;-80
2022/01/13 08:26:44;;;;;;;;;17.25;13.25;;;;;4.69;88.02;103339.84;5077349;28;45510;-80
2022/01/13 08:29:10;;;;;;;;;17.75;13.75;;;;;4.70;87.76;103336.34;5076711;28;45729;-78
2022/01/13 08:31:35;;;;;;;;;15.00;12.00;;;;;4.70;88.04;103336.34;5076575;28;45631;-80
2022/01/13 08:34:00;;;;;;;;;17.75;15.25;;;;;4.66;87.93;103321.66;5077846;28;46567;-78
2022/01/13 08:36:26;;;;;;;;;17.50;12.00;;;;;4.68;88.13;103326.84;5080274;28;45664;-77
2022/01/13 08:42:14;;;;;;;;;19.00;14.50;;;;;4.63;88.13;103319.94;5077460;28;45574;-79
2022/01/13 08:44:40;;;;;;;;;21.25;15.00;;;;;4.51;87.89;103303.53;5058072;28;46829;-79
2022/01/13 08:47:07;;;;;;;;;23.75;17.00;;;;;4.61;87.88;103318.22;5076384;28;45546;-79
2022/01/13 08:49:33;;;;;;;;;15.25;15.00;;;;;4.63;87.91;103325.13;5076729;28;45538;-78
2022/01/13 08:58:05;;;;;;;;;19.00;14.00;;;;;4.72;87.74;103332.03;5074776;28;45755;-78
2022/01/13 09:00:32;;;;;;;;;16.50;14.50;;;;;4.70;88.14;103330.31;5075667;28;45863;-79
2022/01/13 09:02:57;;;;;;;;;15.00;12.00;;;;;4.69;87.86;103324.25;5075510;28;45672;-79
2022/01/13 09:05:23;;;;;;;;;19.75;16.25;;;;;4.74;87.75;103330.28;5075727;28;45712;-79
2022/01/13 09:07:48;;;;;;;;;18.50;18.50;;;;;4.71;87.93;103327.69;5075965;28;45593;-79
2022/01/13 09:10:16;;;;;;;;;15.25;12.00;;;;;4.75;87.53;103342.38;5076114;28;45611;-78
2022/01/13 09:12:41;;;;;;;;;18.75;17.00;;;;;4.75;88.04;103344.16;5075537;28;46466;-78
2022/01/13 09:15:32;;;;;;;;;18.75;14.25;;;;;4.74;87.65;103342.41;5075636;28;46171;-77
2022/01/13 09:17:59;;;;;;;;;20.50;19.50;;;;;4.76;88.03;103351.91;5074255;28;45839;-78
2022/01/13 09:20:25;;;;;;;;;19.00;15.00;;;;;4.76;87.95;103357.09;5075697;28;45659;-77
2022/01/13 09:22:50;;;;;;;;;21.75;20.25;;;;;4.65;87.58;103336.34;5075706;28;46545;-78
2022/01/13 09:25:17;;;;;;;;;20.25;18.50;;;;;4.80;87.87;103368.38;5075877;28;46337;-77
2022/01/13 09:27:42;;;;;;;;;21.00;16.00;;;;;4.80;87.95;103360.56;5075718;28;45779;-79
2022/01/13 09:30:10;;;;;;;;;21.25;16.25;;;;;4.80;87.47;103366.63;5075726;28;45537;-78
2022/01/13 09:32:36;;;;;;;;;18.50;14.00;;;;;4.82;87.86;103374.41;5075305;28;46882;-79
2022/01/13 09:35:04;;;;;;;;;18.75;15.25;;;;;4.75;87.63;103360.56;5074235;28;48470;-80
2022/01/13 09:40:52;;;;;;;;;22.50;17.00;;;;;4.88;87.50;103372.66;5075528;28;45650;-80
2022/01/13 09:43:21;;;;;;;;;22.25;19.75;;;;;4.94;87.98;103382.16;5075659;28;45557;-80
2022/01/13 09:45:47;;;;;;;;;19.75;18.75;;;;;4.91;87.44;103372.63;5075520;28;47138;-80
2022/01/13 09:48:13;;;;;;;;;16.50;13.25;;;;;4.99;87.36;103386.47;5076355;28;45890;-81
2022/01/13 09:50:43;;;;;;;;;20.00;15.25;;;;;4.93;87.74;103370.91;5076393;28;45518;-80
2022/01/13 09:56:33;;;;;;;;;19.00;18.50;;;;;4.99;87.14;103376.09;5076713;28;45758;-79
2022/01/13 09:58:59;;;;;;;;;26.75;21.25;;;;;4.99;87.79;103373.50;5077486;28;45618;-81
2022/01/13 10:01:24;;;;;;;;;22.75;18.50;;;;;4.89;87.29;103347.56;5075051;28;45804;-80
2022/01/13 10:03:50;;;;;;;;;23.00;21.00;;;;;5.02;87.36;103381.25;5074820;28;45859;-81
2022/01/13 10:06:20;;;;;;;;;23.00;18.25;;;;;4.99;87.38;103385.63;5075193;28;46272;-79
2022/01/13 10:12:08;;;;;;;;;19.25;17.75;;;;;4.92;87.54;103363.97;5075179;28;45518;-80
2022/01/13 10:17:04;;;;;;;;;23.25;20.50;;;;;5.13;87.35;103389.00;5075121;28;45611;-78
2022/01/13 10:19:36;;;;;;;;;21.00;17.25;;;;;5.13;87.18;103380.38;5075782;28;45648;-78
2022/01/13 10:22:24;;;;;;;;;23.25;19.25;;;;;4.94;87.75;103353.59;5076647;28;45448;-79
2022/01/13 10:28:21;;;;;;;;;22.50;19.00;;;;;5.06;87.24;103361.34;5074702;28;45550;-79
2022/01/13 10:30:49;;;;;;;;;24.50;18.50;;;;;5.20;87.27;103380.34;5074332;28;45522;-78
2022/01/13 10:33:22;;;;;;;;;23.00;18.00;;;;;5.27;87.51;103375.97;5074401;28;45774;-81
2022/01/13 10:35:50;;;;;;;;;24.00;22.00;;;;;5.31;87.61;103378.56;5074407;28;45605;-79
2022/01/13 10:38:17;;;;;;;;;28.00;26.25;;;;;5.35;86.99;103382.84;5074804;28;46176;-79
2022/01/13 10:40:53;;;;;;;;;28.50;22.50;;;;;5.21;86.99;103350.88;5074563;28;45852;-79
2022/01/13 10:43:26;;;;;;;;;26.75;22.50;;;;;5.39;87.18;103387.19;5074749;28;45520;-78
2022/01/13 10:45:56;;;;;;;;;24.25;21.75;;;;;5.39;86.86;103375.94;5074757;28;46666;-79
2022/01/13 10:48:25;;;;;;;;;25.75;19.75;;;;;5.41;87.37;103377.63;5074415;28;46186;-78
2022/01/13 10:50:59;;;;;;;;;29.00;19.50;;;;;5.39;86.75;103381.13;5074178;28;45862;-78
2022/01/13 10:53:28;;;;;;;;;22.25;19.00;;;;;5.14;87.23;103335.31;5074661;28;45561;-78
2022/01/13 10:56:20;;;;;;;;;24.75;22.00;;;;;5.28;87.23;103360.38;5074692;28;45549;-80
2022/01/13 10:58:52;;;;;;;;;26.25;22.00;;;;;5.35;86.92;103374.19;5069512;28;45531;-79
2022/01/13 11:01:17;;;;;;;;;23.75;22.00;;;;;5.34;86.89;103375.97;5056259;28;45845;-78
2022/01/13 11:03:44;;;;;;;;;26.50;22.00;;;;;5.33;87.29;103365.56;5074927;28;45745;-78
2022/01/13 11:06:11;;;;;;;;;26.00;21.75;;;;;5.28;87.33;103356.94;5074462;28;46311;-79
2022/01/13 11:08:46;;;;;;;;;26.25;22.75;;;;;5.23;87.32;103358.69;5074198;28;46357;-77
2022/01/13 11:11:25;;;;;;;;;26.25;22.75;;;;;5.28;87.01;103364.72;5073887;28;45658;-80
2022/01/13 11:13:57;;;;;;;;;36.25;28.50;;;;;5.25;86.88;103354.31;5073823;27;45537;-80
2022/01/13 11:16:24;;;;;;;;;29.00;21.50;;;;;5.00;86.96;103315.47;5077001;28;45517;-78
2022/01/13 11:18:50;;;;;;;;;20.75;19.75;;;;;5.21;87.05;103350.03;5077479;28;45979;-79
2022/01/13 11:21:16;;;;;;;;;23.00;20.00;;;;;5.25;87.38;103349.13;5058575;28;45947;-79
2022/01/13 11:23:45;;;;;;;;;29.75;23.50;;;;;5.23;86.82;103346.56;5078150;28;45529;-76
2022/01/13 11:26:12;;;;;;;;;36.50;28.50;;;;;5.28;86.49;103355.19;5077700;28;45733;-78
2022/01/13 11:28:39;;;;;;;;;29.25;25.75;;;;;5.30;86.81;103350.81;5077658;28;47076;-79
2022/01/13 11:31:07;;;;;;;;;26.00;20.50;;;;;5.33;86.77;103350.84;5077223;28;45589;-79
2022/01/13 11:33:33;;;;;;;;;31.25;26.25;;;;;5.36;86.78;103353.41;5077899;28;45545;-77
2022/01/13 11:35:59;;;;;;;;;29.75;26.25;;;;;5.37;86.79;103343.88;5077595;28;45596;-78
2022/01/13 11:38:27;;;;;;;;;26.50;24.50;;;;;5.32;86.66;103325.69;5077224;28;46717;-78
2022/01/13 11:40:58;;;;;;;;;30.75;27.50;;;;;5.43;86.99;103339.50;5076928;28;45872;-79
2022/01/13 11:43:38;;;;;;;;;29.50;24.00;;;;;5.48;86.78;103329.06;5077238;28;45609;-78
2022/01/13 11:46:24;;;;;;;;;28.75;24.00;;;;;5.55;86.29;103324.72;5076978;28;46972;-79
2022/01/13 11:49:15;;;;;;;;;30.00;27.50;;;;;5.41;86.58;103288.38;5077221;28;45641;-80
2022/01/13 11:52:09;;;;;;;;;34.00;29.75;;;;;5.68;86.81;103316.78;5077111;28;45656;-79
2022/01/13 11:54:37;;;;;;;;;34.75;27.50;;;;;5.72;86.71;103315.88;5077131;28;45593;-79
2022/01/13 11:57:20;;;;;;;;;35.25;30.00;;;;;5.79;86.88;103320.19;5077251;28;46402;-80
2022/01/13 12:00:18;;;;;;;;;45.00;32.25;;;;;5.84;86.68;103318.41;5075768;28;48245;-79
2022/01/13 12:02:44;;;;;;;;;31.00;26.00;;;;;5.92;86.24;103310.59;5076027;28;45651;-79
2022/01/13 12:05:25;;;;;;;;;36.00;26.50;;;;;5.96;86.56;103314.00;5077756;28;45593;-79
2022/01/13 12:07:57;;;;;;;;;32.75;28.50;;;;;5.93;86.64;103307.13;5077310;28;46413;-76
2022/01/13 12:10:23;;;;;;;;;32.75;28.00;;;;;5.99;86.34;103314.00;5076745;28;47281;-79
2022/01/13 12:12:48;;;;;;;;;39.50;31.50;;;;;5.96;86.58;103298.41;5058525;28;45722;-79
2022/01/13 12:15:18;;;;;;;;;37.75;31.25;;;;;5.98;86.24;103300.13;5077446;28;45646;-80
2022/01/13 12:17:49;;;;;;;;;29.25;25.25;;;;;5.73;86.42;103263.00;5076951;28;45571;-78
2022/01/13 12:20:25;;;;;;;;;34.00;28.25;;;;;5.95;86.15;103287.13;5076852;28;46108;-77
2022/01/13 12:23:15;;;;;;;;;37.25;26.50;;;;;6.01;86.36;103291.41;5058573;28;45811;-79
2022/01/13 12:25:40;;;;;;;;;29.75;28.00;;;;;6.03;86.15;103289.69;5076707;28;45542;-77
2022/01/13 12:28:21;;;;;;;;;38.25;30.75;;;;;6.04;85.95;103292.28;5076329;28;46505;-79
2022/01/13 12:30:46;;;;;;;;;33.50;27.25;;;;;6.01;86.28;103294.03;5077029;28;46069;-75
2022/01/13 12:33:29;;;;;;;;;34.75;29.50;;;;;6.01;86.50;103294.88;5079498;28;45522;-77
2022/01/13 12:35:55;;;;;;;;;33.75;23.50;;;;;5.89;86.14;103271.56;5089052;28;45892;-80
2022/01/13 12:38:22;;;;;;;;;30.50;27.50;;;;;5.99;86.12;103283.66;5096308;28;46333;-87
2022/01/13 12:40:54;;;;;;;;;33.50;29.00;;;;;6.02;85.92;103285.34;5074680;28;47464;-81
2022/01/13 12:46:13;;;;;;;;;37.50;33.75;;;;;6.06;85.89;103269.69;5084379;28;45617;-83
2022/01/13 12:48:40;;;;;;;;;35.00;28.00;;;;;6.11;86.09;103269.63;5084524;28;45542;-88